Time;durP1;ratioP1;P1;durP2;ratioP2;P2;SDS_P1;SDS_P2;PMS_P1;PMS_P2;Temp;Humidity;BMP_temperature;BMP_pressure;BME280_temperature;BME280_humidity;BME280_pressure;Samples;Min_cycle;Max_cycle;Signal;HPM_P1;HPM_P2
2022/08/06 00:00:15;;;;;;;5.35;3.50;;;;;;;13.90;81.52;101794.25;5055098;28;20080;-81
2022/08/06 00:02:42;;;;;;;9.60;3.80;;;;;;;13.85;82.09;101786.81;5054154;28;20467;-78
2022/08/06 00:05:11;;;;;;;6.03;3.70;;;;;;;13.77;81.92;101791.16;5054234;28;20511;-79
2022/08/06 00:07:38;;;;;;;8.35;3.63;;;;;;;13.77;82.14;101791.97;5057888;28;20045;-80
2022/08/06 00:10:05;;;;;;;4.68;3.45;;;;;;;13.74;82.21;101794.91;5058418;28;20080;-80
2022/08/06 00:12:34;;;;;;;7.13;4.15;;;;;;;13.67;82.42;101793.03;5054976;28;20126;-78
2022/08/06 00:15:01;;;;;;;7.47;4.15;;;;;;;13.55;82.92;101798.50;5055868;28;20096;-77
2022/08/06 00:17:27;;;;;;;7.30;4.57;;;;;;;13.55;82.72;101793.25;5053453;28;20049;-76
2022/08/06 00:19:54;;;;;;;6.50;3.72;;;;;;;13.40;83.46;101799.94;5052274;28;20053;-77
2022/08/06 00:22:24;;;;;;;7.18;3.95;;;;;;;13.43;83.57;101802.28;5054424;28;20095;-79
2022/08/06 00:24:51;;;;;;;5.40;3.65;;;;;;;13.33;84.07;101803.31;5054264;28;20127;-78
2022/08/06 00:27:18;;;;;;;7.50;3.70;;;;;;;13.27;83.93;101799.44;5052474;28;20099;-77
2022/08/06 00:29:44;;;;;;;7.80;3.90;;;;;;;13.26;84.66;101801.25;5052418;28;20111;-80
2022/08/06 00:32:13;;;;;;;6.38;4.00;;;;;;;13.19;84.45;101800.19;5053013;28;20049;-78
2022/08/06 00:34:39;;;;;;;10.10;4.30;;;;;;;13.13;84.49;101806.00;5054117;28;20111;-78
2022/08/06 00:37:13;;;;;;;4.78;3.60;;;;;;;13.11;85.10;101825.50;5059951;28;20060;-79
2022/08/06 00:43:34;;;;;;;8.50;3.80;;;;;;;13.02;86.15;101814.06;5022168;28;20073;-82
2022/08/06 00:46:04;;;;;;;6.63;3.53;;;;;;;12.96;85.85;101815.44;5002912;28;20433;-82
2022/08/06 00:51:58;;;;;;;5.18;3.88;;;;;;;12.87;86.19;101823.34;4895323;29;20091;-78
2022/08/06 00:54:25;;;;;;;6.40;4.22;;;;;;;12.84;86.42;101824.47;4996810;22;20109;-79
2022/08/06 00:56:51;;;;;;;6.40;4.03;;;;;;;12.84;86.34;101813.97;5054825;28;20162;-80
2022/08/06 00:59:19;;;;;;;9.52;4.10;;;;;;;12.92;85.75;101823.75;5062679;28;20059;-80
2022/08/06 01:01:46;;;;;;;8.02;3.90;;;;;;;12.85;85.76;101818.25;5062932;28;20052;-80
2022/08/06 01:04:13;;;;;;;8.15;4.15;;;;;;;12.78;85.90;101822.41;5063353;28;20122;-79
2022/08/06 01:06:40;;;;;;;7.95;3.92;;;;;;;12.74;86.38;101822.84;5062077;28;20144;-78
2022/08/06 01:09:06;;;;;;;10.10;4.00;;;;;;;12.80;86.30;101819.63;5060669;28;20088;-79
2022/08/06 01:11:33;;;;;;;7.70;4.03;;;;;;;12.72;86.29;101816.91;5060565;28;20084;-80
2022/08/06 01:14:00;;;;;;;8.00;4.10;;;;;;;12.71;86.10;101826.59;5061173;28;20072;-81
2022/08/06 01:16:36;;;;;;;6.53;4.00;;;;;;;12.70;86.51;101830.19;5060558;28;20079;-80
2022/08/06 01:19:18;;;;;;;8.07;4.10;;;;;;;12.68;86.44;101832.13;5060829;28;20085;-80
2022/08/06 01:21:52;;;;;;;7.45;4.47;;;;;;;12.70;86.33;101840.69;5049799;28;20482;-79
2022/08/06 01:24:44;;;;;;;7.55;4.00;;;;;;;12.67;86.53;101843.59;5041234;28;20042;-79
2022/08/06 01:27:34;;;;;;;7.20;4.10;;;;;;;12.64;86.68;101836.00;5041137;28;20045;-79
2022/08/06 01:30:06;;;;;;;7.68;4.30;;;;;;;12.65;86.56;101828.94;5040575;28;20132;-80
2022/08/06 01:32:38;;;;;;;8.60;4.57;;;;;;;12.62;86.66;101833.50;5040205;28;20045;-79
2022/08/06 01:35:09;;;;;;;5.60;4.53;;;;;;;12.58;86.89;101828.66;5039895;28;20069;-78
2022/08/06 01:37:42;;;;;;;8.32;4.50;;;;;;;12.58;86.63;101836.53;5043609;28;20103;-79
2022/08/06 01:40:14;;;;;;;9.77;5.00;;;;;;;12.62;86.64;101848.44;5039909;28;20054;-79
2022/08/06 01:42:44;;;;;;;10.55;5.10;;;;;;;12.60;86.69;101845.09;5039753;28;20049;-79
2022/08/06 01:45:14;;;;;;;10.18;4.97;;;;;;;12.64;86.77;101846.50;5039802;28;20288;-80
2022/08/06 01:47:43;;;;;;;9.00;5.18;;;;;;;12.59;86.64;101848.69;5038276;28;20045;-79
2022/08/06 01:50:13;;;;;;;7.47;4.80;;;;;;;12.54;87.07;101856.16;5040316;28;20050;-79
2022/08/06 01:52:42;;;;;;;10.63;4.57;;;;;;;12.52;87.02;101847.59;5040694;28;20084;-78
2022/08/06 01:55:12;;;;;;;9.43;4.57;;;;;;;12.51;87.11;101859.91;5039295;28;20092;-80
2022/08/06 01:57:46;;;;;;;12.20;5.50;;;;;;;12.47;87.15;101852.44;5040157;28;20089;-79
2022/08/06 02:00:14;;;;;;;7.15;4.93;;;;;;;12.46;87.05;101853.41;5040186;28;20077;-81
2022/08/06 02:02:43;;;;;;;8.52;4.45;;;;;;;12.49;87.10;101859.19;5039911;28;20479;-80
2022/08/06 02:05:11;;;;;;;10.15;5.75;;;;;;;12.41;87.58;101871.34;5040246;28;20113;-81
2022/08/06 02:07:41;;;;;;;9.55;5.00;;;;;;;12.33;87.78;101858.09;5040145;28;20084;-80
2022/08/06 02:10:10;;;;;;;13.18;5.15;;;;;;;12.33;88.07;101852.84;5039436;28;20045;-78
2022/08/06 02:12:40;;;;;;;12.02;4.80;;;;;;;12.37;88.17;101859.47;5039547;28;20411;-80
2022/08/06 02:15:14;;;;;;;6.68;4.70;;;;;;;12.33;88.10;101856.28;5038192;28;20111;-79
2022/08/06 02:17:47;;;;;;;8.48;5.13;;;;;;;12.27;88.36;101859.50;5039120;28;20050;-79
2022/08/06 02:20:16;;;;;;;10.25;5.35;;;;;;;12.25;88.29;101856.19;5037868;28;20088;-79
2022/08/06 02:22:45;;;;;;;8.52;4.63;;;;;;;12.24;88.75;101863.22;5038751;28;20339;-80
2022/08/06 02:25:15;;;;;;;7.88;4.40;;;;;;;12.18;88.41;101861.13;5038743;28;20077;-78
2022/08/06 02:27:46;;;;;;;12.15;4.95;;;;;;;12.16;88.95;101863.06;5038932;28;20058;-79
2022/08/06 02:30:15;;;;;;;11.13;4.60;;;;;;;12.10;88.79;101858.38;5038747;28;20077;-81
2022/08/06 02:32:42;;;;;;;9.80;5.25;;;;;;;12.05;89.43;101865.81;5038305;28;20083;-80
2022/08/06 02:35:10;;;;;;;9.50;4.72;;;;;;;12.03;89.20;101861.66;5038937;28;20068;-80
2022/08/06 02:37:44;;;;;;;6.25;4.88;;;;;;;12.01;89.40;101860.97;5038358;28;20049;-80
2022/08/06 02:40:16;;;;;;;7.05;4.50;;;;;;;12.00;89.67;101868.00;5038349;28;20054;-81
2022/08/06 02:42:46;;;;;;;10.47;4.90;;;;;;;11.99;89.79;101871.59;5038149;28;20050;-80
2022/08/06 02:45:20;;;;;;;10.88;4.88;;;;;;;11.95;89.75;101857.91;5037960;28;20087;-81
2022/08/06 02:47:52;;;;;;;12.18;5.22;;;;;;;11.90;90.27;101861.91;5037632;28;20085;-81
2022/08/06 02:50:25;;;;;;;9.15;5.47;;;;;;;11.85;90.71;101864.09;5037303;28;20081;-80
2022/08/06 02:52:55;;;;;;;;;;;;;;;11.78;91.21;101865.63;5038205;28;20049;-80
2022/08/06 02:55:26;;;;;;;9.40;4.72;;;;;;;11.69;91.22;101863.75;5038341;28;19956;-80
2022/08/06 02:57:56;;;;;;;13.15;5.45;;;;;;;11.67;91.26;101857.81;5038218;28;20076;-82
2022/08/06 03:00:26;;;;;;;12.38;5.18;;;;;;;11.68;91.53;101847.19;5038297;28;20145;-80
2022/08/06 03:02:56;;;;;;;14.68;5.20;;;;;;;11.62;91.97;101845.94;5038816;28;20089;-80
2022/08/06 03:05:24;;;;;;;11.77;5.63;;;;;;;11.67;91.86;101857.81;5038250;28;20610;-80
2022/08/06 03:07:53;;;;;;;9.73;5.13;;;;;;;11.66;91.88;101850.91;5037654;28;20128;-80
2022/08/06 03:10:22;;;;;;;14.43;5.68;;;;;;;11.64;91.56;101857.13;5037528;28;20049;-80
2022/08/06 03:12:51;;;;;;;10.60;5.18;;;;;;;11.60;92.03;101850.47;5037878;28;20109;-80
2022/08/06 03:15:19;;;;;;;12.15;6.63;;;;;;;11.59;92.12;101861.09;5036586;28;20085;-80
2022/08/06 03:17:48;;;;;;;12.13;5.88;;;;;;;11.57;92.12;101861.22;5037633;28;20077;-80
2022/08/06 03:20:19;;;;;;;12.57;5.63;;;;;;;11.57;92.56;101861.22;5038009;28;20092;-80
2022/08/06 03:22:49;;;;;;;12.52;5.82;;;;;;;11.52;92.44;101852.94;5023481;28;20074;-81
2022/08/06 03:25:17;;;;;;;9.82;5.68;;;;;;;11.51;92.39;101850.44;5018631;28;20073;-81
2022/08/06 03:27:45;;;;;;;10.70;5.40;;;;;;;11.50;92.80;101856.66;5018093;28;20093;-81
2022/08/06 03:30:13;;;;;;;16.05;6.10;;;;;;;11.48;92.66;101862.03;5018370;28;20054;-81
2022/08/06 03:32:41;;;;;;;9.93;5.47;;;;;;;11.44;92.94;101867.66;5018063;28;20050;-81
2022/08/06 03:35:10;;;;;;;10.15;5.80;;;;;;;11.46;92.80;101863.94;5018144;28;20061;-81
2022/08/06 03:37:37;;;;;;;9.55;5.95;;;;;;;11.47;93.07;101870.00;5017915;28;20085;-81
2022/08/06 03:40:06;;;;;;;15.00;5.85;;;;;;;11.45;93.40;101883.25;5017690;28;20437;-81
2022/08/06 03:42:34;;;;;;;9.65;6.28;;;;;;;11.41;93.62;101888.88;5018176;28;20145;-81
2022/08/06 03:45:01;;;;;;;10.48;5.57;;;;;;;11.36;94.10;101884.03;5017510;28;20424;-81
2022/08/06 03:47:32;;;;;;;14.07;5.95;;;;;;;11.33;94.04;101891.34;5018059;28;20077;-81
2022/08/06 03:50:05;;;;;;;10.00;5.32;;;;;;;11.35;93.84;101886.78;5018195;28;20054;-80
2022/08/06 03:52:39;;;;;;;11.55;5.60;;;;;;;11.39;94.18;101883.78;5017856;28;20050;-79
2022/08/06 03:55:08;;;;;;;8.45;5.15;;;;;;;11.39;94.05;101894.25;5017947;28;20401;-79
2022/08/06 03:57:40;;;;;;;10.05;5.75;;;;;;;11.40;94.31;101889.84;5017811;28;20056;-80
2022/08/06 04:00:09;;;;;;;10.00;5.32;;;;;;;11.40;94.05;101895.09;5017577;28;20520;-81
2022/08/06 04:02:39;;;;;;;10.35;5.30;;;;;;;11.34;94.48;101898.25;5017529;28;20050;-81
2022/08/06 04:05:08;;;;;;;10.32;5.43;;;;;;;11.38;94.56;101897.84;5018095;28;20046;-81
2022/08/06 04:07:36;;;;;;;13.80;5.85;;;;;;;11.30;94.59;101897.69;5018340;28;20045;-82
2022/08/06 04:10:04;;;;;;;10.73;5.65;;;;;;;11.31;94.78;101907.19;5018736;28;20057;-82
2022/08/06 04:12:32;;;;;;;13.30;5.97;;;;;;;11.32;94.83;101908.84;5020278;28;20050;-82
2022/08/06 04:14:59;;;;;;;12.30;5.78;;;;;;;11.34;95.15;101906.94;5020272;28;20078;-82
2022/08/06 04:17:27;;;;;;;10.57;5.93;;;;;;;11.37;94.51;101906.66;5020476;28;20053;-81
2022/08/06 04:19:55;;;;;;;17.42;6.07;;;;;;;11.35;94.54;101911.19;5020900;28;20108;-81
2022/08/06 04:22:22;;;;;;;11.50;5.80;;;;;;;11.37;94.34;101917.13;5021258;28;20045;-81
2022/08/06 04:24:50;;;;;;;15.02;6.68;;;;;;;11.42;94.74;101920.19;5021180;28;20114;-80
2022/08/06 04:27:18;;;;;;;10.73;5.72;;;;;;;11.58;94.04;101925.81;5020393;28;20089;-81
2022/08/06 04:29:47;;;;;;;13.60;5.50;;;;;;;11.72;93.47;101921.19;5018613;28;20081;-80
2022/08/06 04:32:15;;;;;;;12.25;6.03;;;;;;;11.83;93.08;101927.16;5018898;28;20093;-80
2022/08/06 04:34:44;;;;;;;9.10;5.82;;;;;;;11.95;92.57;101927.91;5018156;28;20133;-81
2022/08/06 04:37:11;;;;;;;9.40;5.75;;;;;;;12.03;91.96;101932.50;5018312;28;20050;-81
2022/08/06 04:39:39;;;;;;;13.90;6.22;;;;;;;12.18;91.44;101933.78;5017452;28;20050;-79
2022/08/06 04:42:08;;;;;;;12.30;6.13;;;;;;;12.29;90.66;101933.63;5017778;28;20128;-79
2022/08/06 04:44:36;;;;;;;9.80;5.80;;;;;;;12.36;90.10;101932.13;5017392;28;20046;-79
2022/08/06 04:47:04;;;;;;;11.40;7.55;;;;;;;12.32;89.97;101941.25;5017822;28;20089;-81
2022/08/06 04:49:34;;;;;;;9.63;5.88;;;;;;;12.32;89.79;101938.63;5018994;28;20069;-81
2022/08/06 04:52:00;;;;;;;17.10;6.50;;;;;;;12.35;89.69;101940.16;5019600;28;20469;-81
2022/08/06 04:54:27;;;;;;;13.00;6.20;;;;;;;12.43;89.63;101950.81;5020375;28;20070;-81
2022/08/06 04:56:54;;;;;;;11.63;6.20;;;;;;;12.45;89.62;101954.13;5018270;28;20053;-79
2022/08/06 04:59:22;;;;;;;13.40;6.13;;;;;;;12.69;88.72;101949.31;5017445;28;20112;-80
2022/08/06 05:01:48;;;;;;;15.88;6.30;;;;;;;12.79;88.08;101954.56;5018192;28;20054;-79
2022/08/06 05:04:15;;;;;;;10.50;6.05;;;;;;;13.09;86.88;101951.78;5017672;28;20084;-79
2022/08/06 05:06:49;;;;;;;7.65;5.47;;;;;;;13.03;86.60;101960.22;5016878;28;20092;-80
2022/08/06 05:09:20;;;;;;;13.13;6.05;;;;;;;13.08;86.94;101963.28;5016394;28;20053;-80
2022/08/06 05:11:52;;;;;;;12.57;6.28;;;;;;;13.26;86.26;101963.41;5016466;28;20546;-80
2022/08/06 05:14:25;;;;;;;10.50;5.80;;;;;;;13.47;85.46;101971.94;5016381;28;20700;-79
2022/08/06 05:16:55;;;;;;;13.23;6.30;;;;;;;13.47;85.17;101961.44;5015221;28;20458;-80
2022/08/06 05:19:27;;;;;;;12.98;5.88;;;;;;;13.41;85.46;101959.38;5015755;28;20493;-80
2022/08/06 05:21:56;;;;;;;13.90;5.70;;;;;;;13.82;84.01;101959.91;5018436;28;20132;-80
2022/08/06 05:24:23;;;;;;;13.18;5.88;;;;;;;14.17;82.81;101956.59;5039270;28;20084;-80
2022/08/06 05:26:50;;;;;;;10.75;5.85;;;;;;;14.39;81.73;101979.84;5039346;28;20049;-79
2022/08/06 05:29:19;;;;;;;16.10;6.65;;;;;;;15.41;78.22;101988.19;5038662;28;20111;-80
2022/08/06 05:31:48;;;;;;;10.68;4.80;;;;;;;16.38;74.82;101977.28;5038326;28;20099;-80
2022/08/06 05:34:15;;;;;;;10.02;4.80;;;;;;;17.15;72.07;101980.53;5038349;28;20076;-80
2022/08/06 05:36:42;;;;;;;8.80;4.60;;;;;;;18.06;68.73;101969.56;5038367;28;20524;-80
2022/08/06 05:39:08;;;;;;;12.63;5.00;;;;;;;18.41;67.14;101970.91;5038313;28;20053;-80
2022/08/06 05:41:35;;;;;;;7.40;4.57;;;;;;;18.89;66.47;101981.19;5038615;28;20065;-82
2022/08/06 05:44:02;;;;;;;10.85;4.45;;;;;;;19.47;64.92;101987.59;5037566;28;20053;-82
2022/08/06 05:46:35;;;;;;;13.65;4.80;;;;;;;19.55;63.92;101984.06;5037399;28;20045;-79
2022/08/06 05:49:07;;;;;;;7.53;4.35;;;;;;;20.07;62.57;101988.44;5036970;28;20045;-80
2022/08/06 05:51:39;;;;;;;7.35;4.40;;;;;;;20.59;61.66;101982.13;5037068;28;20090;-81
2022/08/06 05:54:16;;;;;;;11.05;4.30;;;;;;;21.19;60.06;101986.97;5037221;28;20483;-81
2022/08/06 05:56:47;;;;;;;8.48;4.50;;;;;;;20.72;60.84;101983.09;5029938;28;20081;-81
2022/08/06 05:59:19;;;;;;;9.25;4.75;;;;;;;21.12;59.80;101994.06;5020720;28;20077;-81
2022/08/06 06:01:47;;;;;;;11.75;4.78;;;;;;;21.80;58.67;101987.97;5021503;28;20050;-79
2022/08/06 06:04:16;;;;;;;10.93;4.95;;;;;;;21.61;58.15;101999.38;5020141;28;20057;-77
2022/08/06 06:06:44;;;;;;;10.00;4.35;;;;;;;21.91;57.42;101989.28;5023314;28;20060;-77
2022/08/06 06:09:13;;;;;;;8.20;4.15;;;;;;;22.22;57.03;101995.97;5025699;28;20054;-78
2022/08/06 06:11:41;;;;;;;8.75;4.43;;;;;;;22.35;56.86;101996.03;5025968;28;20060;-80
2022/08/06 06:14:25;;;;;;;7.30;4.50;;;;;;;22.70;55.89;101989.53;5026415;28;20129;-80
2022/08/06 06:17:03;;;;;;;10.15;5.10;;;;;;;22.71;55.20;101988.50;5026696;28;20050;-81
2022/08/06 06:19:36;;;;;;;4.78;4.00;;;;;;;23.26;54.18;101996.34;5027398;28;20052;-80
2022/08/06 06:22:09;;;;;;;8.48;4.80;;;;;;;23.03;53.67;101986.13;5038243;28;20044;-80
2022/08/06 06:24:41;;;;;;;8.82;4.70;;;;;;;23.34;53.79;101996.97;5038444;28;20042;-80
2022/08/06 06:27:15;;;;;;;;;;;;;;;23.68;52.58;101992.41;5038736;28;20053;-79
2022/08/06 06:29:49;;;;;;;10.73;4.68;;;;;;;23.97;51.72;102002.63;5035682;28;19925;-78
2022/08/06 06:32:20;;;;;;;10.00;4.60;;;;;;;23.71;52.65;101992.00;5037461;28;20050;-77
2022/08/06 06:34:55;;;;;;;12.52;4.85;;;;;;;23.96;52.58;102003.66;5031216;28;20050;-79
2022/08/06 06:37:31;;;;;;;10.30;5.35;;;;;;;24.25;51.24;102004.13;5021481;28;20115;-79
2022/08/06 06:40:08;;;;;;;10.10;4.75;;;;;;;24.17;51.35;102008.69;5021685;28;20053;-79
2022/08/06 06:42:41;;;;;;;11.65;5.43;;;;;;;24.52;51.10;102011.03;5021072;28;20065;-79
2022/08/06 06:45:16;;;;;;;8.43;4.53;;;;;;;24.22;50.74;102009.91;5019700;28;20148;-79
2022/08/06 06:47:48;;;;;;;10.95;5.13;;;;;;;24.84;49.75;102011.00;5019688;28;20104;-78
2022/08/06 06:50:22;;;;;;;12.77;5.40;;;;;;;24.50;51.23;102013.09;5019887;28;20050;-79
2022/08/06 06:52:52;;;;;;;11.20;5.05;;;;;;;23.78;51.67;102011.50;5019333;28;20050;-79
2022/08/06 06:55:24;;;;;;;10.65;5.00;;;;;;;23.97;52.19;102010.63;5125493;22;20072;-80
2022/08/06 06:57:54;;;;;;;13.38;5.60;;;;;;;23.94;52.40;102015.56;5057788;28;20049;-78
2022/08/06 07:00:21;;;;;;;8.27;5.15;;;;;;;23.66;52.93;102021.19;5060618;28;20083;-79
2022/08/06 07:02:49;;;;;;;10.80;5.20;;;;;;;24.37;51.41;102029.22;5057456;28;20056;-79
2022/08/06 07:05:20;;;;;;;12.05;5.22;;;;;;;25.07;50.82;102024.66;5058129;28;20045;-79
2022/08/06 07:07:50;;;;;;;9.30;5.20;;;;;;;25.05;49.17;102024.88;5057806;28;20109;-80
2022/08/06 07:10:19;;;;;;;9.57;5.55;;;;;;;25.03;49.16;102028.81;5060424;28;20088;-81
2022/08/06 07:12:48;;;;;;;8.88;5.22;;;;;;;24.57;51.17;102023.75;5059408;28;20075;-80
2022/08/06 07:15:17;;;;;;;11.93;5.65;;;;;;;24.30;51.72;102031.09;5057220;28;20415;-79
2022/08/06 07:17:45;;;;;;;7.60;4.90;;;;;;;24.34;51.59;102034.97;5057067;28;20080;-78
2022/08/06 07:20:14;;;;;;;10.00;5.30;;;;;;;24.02;51.45;102037.56;5055897;28;20048;-79
2022/08/06 07:22:44;;;;;;;9.70;5.55;;;;;;;24.08;50.69;102028.69;5056251;28;20060;-79
2022/08/06 07:25:14;;;;;;;9.00;5.28;;;;;;;24.87;51.29;102048.06;5055130;28;20372;-78
2022/08/06 07:27:43;;;;;;;11.48;5.20;;;;;;;24.74;50.13;102044.44;5055640;28;20144;-79
2022/08/06 07:30:12;;;;;;;10.85;5.35;;;;;;;25.11;49.27;102041.91;5054876;28;20060;-78
2022/08/06 07:32:39;;;;;;;14.05;5.80;;;;;;;24.77;50.03;102037.81;5057530;28;20089;-78
2022/08/06 07:35:11;;;;;;;9.40;5.80;;;;;;;23.75;51.85;102039.47;5062921;28;20534;-81
2022/08/06 07:37:50;;;;;;;10.25;6.10;;;;;;;22.67;54.41;102039.84;5064427;28;20049;-80
2022/08/06 07:40:23;;;;;;;11.80;6.03;;;;;;;22.13;57.26;102046.00;5063451;28;20049;-80
2022/08/06 07:42:54;;;;;;;10.95;5.75;;;;;;;22.72;55.18;102035.50;5063470;28;20049;-80
2022/08/06 07:45:23;;;;;;;12.60;5.80;;;;;;;22.02;56.36;102041.22;5063064;28;20100;-81
2022/08/06 07:47:51;;;;;;;12.02;4.88;;;;;;;22.33;56.79;102043.41;5059865;28;20052;-80
2022/08/06 07:50:19;;;;;;;7.18;5.18;;;;;;;22.48;55.46;102038.75;5060073;28;20045;-80
2022/08/06 07:52:48;;;;;;;7.63;5.22;;;;;;;23.34;54.52;102039.72;5057091;28;20084;-80
2022/08/06 07:55:17;;;;;;;9.57;4.95;;;;;;;24.13;52.49;102036.06;5055758;28;20056;-80
2022/08/06 07:57:44;;;;;;;9.52;5.03;;;;;;;24.24;51.39;102042.59;5055512;28;20044;-80
2022/08/06 08:00:12;;;;;;;10.30;5.38;;;;;;;24.61;51.16;102035.66;5055926;28;20056;-78
2022/08/06 08:02:39;;;;;;;11.23;4.45;;;;;;;24.27;51.00;102034.19;5057062;28;20057;-80
2022/08/06 08:08:09;;;;;;;5.20;3.40;;;;;;;23.62;52.40;102036.03;5012845;28;20449;-80
2022/08/06 08:10:37;;;;;;;6.15;3.70;;;;;;;22.39;54.61;102023.94;5012024;28;20081;-77
2022/08/06 08:13:04;;;;;;;10.68;3.75;;;;;;;22.10;55.41;102041.06;5030890;28;20041;-79
2022/08/06 08:15:32;;;;;;;8.73;3.90;;;;;;;21.57;56.02;102039.91;5054786;28;20178;-79
2022/08/06 08:17:59;;;;;;;5.68;3.22;;;;;;;21.39;57.13;102043.88;5053358;28;20103;-77
2022/08/06 08:20:27;;;;;;;9.98;3.45;;;;;;;21.89;55.90;102039.28;5050612;28;20472;-78
2022/08/06 08:22:54;;;;;;;7.57;3.17;;;;;;;22.59;53.34;102030.16;5041106;28;20087;-78
2022/08/06 08:25:25;;;;;;;6.03;3.50;;;;;;;23.07;50.97;102028.22;5054419;28;20076;-75
2022/08/06 08:27:52;;;;;;;8.80;3.58;;;;;;;22.34;52.06;102045.06;5050278;28;20079;-78
2022/08/06 08:30:19;;;;;;;5.60;3.40;;;;;;;22.64;52.67;102038.41;5050968;28;20057;-78
2022/08/06 08:32:45;;;;;;;4.68;2.80;;;;;;;22.44;51.70;102040.16;5051619;28;20135;-76
2022/08/06 08:35:15;;;;;;;7.95;2.92;;;;;;;22.86;51.39;102032.91;5051057;28;20087;-75
2022/08/06 08:37:42;;;;;;;5.13;3.15;;;;;;;23.22;51.20;102035.19;5051282;28;20080;-77
2022/08/06 08:40:10;;;;;;;5.78;2.38;;;;;;;24.19;48.52;102039.75;5050941;28;20142;-78
2022/08/06 08:42:43;;;;;;;4.22;3.03;;;;;;;22.21;51.41;102042.34;5053520;28;20048;-80
2022/08/06 08:45:11;;;;;;;3.15;2.10;;;;;;;21.92;51.84;102028.22;5053366;28;20052;-80
2022/08/06 08:47:40;;;;;;;5.10;2.80;;;;;;;20.90;53.89;102035.81;5053850;28;20099;-78
2022/08/06 08:50:07;;;;;;;4.50;2.63;;;;;;;20.11;55.61;102033.06;5045009;28;20085;-77
2022/08/06 08:52:35;;;;;;;6.07;2.80;;;;;;;19.84;57.22;102036.41;5033072;28;20045;-77
2022/08/06 08:55:04;;;;;;;6.10;2.25;;;;;;;20.42;55.45;102029.38;5033289;28;20049;-80
2022/08/06 08:57:32;;;;;;;9.35;2.25;;;;;;;20.66;55.51;102028.22;5044047;28;20123;-77
2022/08/06 09:00:02;;;;;;;2.85;1.90;;;;;;;20.30;54.89;102026.38;5054980;28;20315;-80
2022/08/06 09:02:29;;;;;;;3.65;2.10;;;;;;;20.56;54.27;102031.19;5047436;28;20050;-80
2022/08/06 09:04:56;;;;;;;4.43;1.92;;;;;;;20.57;53.43;102029.34;5042100;28;20080;-79
2022/08/06 09:07:23;;;;;;;3.25;1.75;;;;;;;20.63;53.25;102031.25;5043858;28;20080;-80
2022/08/06 09:09:50;;;;;;;5.70;2.15;;;;;;;21.33;51.85;102023.34;5053270;28;20049;-80
2022/08/06 09:12:18;;;;;;;4.03;2.10;;;;;;;21.64;49.99;102038.13;5045083;28;20531;-76
2022/08/06 09:14:46;;;;;;;2.95;1.85;;;;;;;21.75;49.86;102032.22;5039424;28;20077;-77
2022/08/06 09:17:14;;;;;;;4.28;1.92;;;;;;;21.65;49.12;102037.09;5048595;28;20045;-77
2022/08/06 09:19:43;;;;;;;5.13;1.48;;;;;;;21.92;48.75;102033.56;5049092;28;20099;-76
2022/08/06 09:22:10;;;;;;;3.28;1.73;;;;;;;21.76;48.50;102031.19;5043441;28;20128;-78
2022/08/06 09:24:38;;;;;;;2.28;1.30;;;;;;;21.65;48.60;102037.09;5044478;28;20084;-78
2022/08/06 09:27:06;;;;;;;3.30;1.50;;;;;;;21.63;48.27;102042.63;5044936;28;20076;-77
2022/08/06 09:29:33;;;;;;;3.35;1.58;;;;;;;22.38;48.01;102025.78;5048161;28;20051;-77
2022/08/06 09:32:03;;;;;;;1.95;1.30;;;;;;;23.06;46.19;102036.44;5044291;28;20124;-78
2022/08/06 09:34:42;;;;;;;5.72;2.08;;;;;;;22.70;45.69;102037.56;5044122;28;20133;-78
2022/08/06 09:37:12;;;;;;;6.75;1.90;;;;;;;22.75;47.03;102034.28;5043576;28;20049;-77
2022/08/06 09:39:40;;;;;;;3.50;1.50;;;;;;;23.03;45.34;102032.31;5042328;28;20045;-78
2022/08/06 09:42:08;;;;;;;3.08;1.20;;;;;;;23.10;44.69;102037.66;5044019;28;20088;-78
2022/08/06 09:44:35;;;;;;;5.63;1.75;;;;;;;22.72;45.51;102024.84;5042315;28;20045;-77
2022/08/06 09:47:03;;;;;;;2.58;1.13;;;;;;;22.48;46.25;102031.56;5043925;28;20543;-76
2022/08/06 09:49:45;;;;;;;3.53;1.05;;;;;;;22.67;46.08;102024.66;5039909;28;20319;-78
2022/08/06 09:52:16;;;;;;;5.22;1.90;;;;;;;23.02;46.78;102033.34;5038557;28;20068;-76
2022/08/06 09:54:43;;;;;;;1.88;1.30;;;;;;;22.46;47.17;102035.47;5041084;28;20085;-77
2022/08/06 09:57:12;;;;;;;3.05;1.05;;;;;;;22.59;46.84;102035.50;5054428;28;20538;-78
2022/08/06 09:59:44;;;;;;;3.78;1.60;;;;;;;22.46;45.80;102022.13;5054573;28;20052;-79
2022/08/06 10:02:14;;;;;;;1.88;1.10;;;;;;;22.41;46.71;102027.22;5038936;28;20049;-76
2022/08/06 10:04:41;;;;;;;2.22;1.27;;;;;;;22.49;45.05;102033.22;5037958;28;20346;-78
2022/08/06 10:07:09;;;;;;;2.38;1.50;;;;;;;22.03;45.21;102035.69;5043459;28;20079;-77
2022/08/06 10:09:37;;;;;;;3.97;1.42;;;;;;;21.36;46.85;102032.78;5044573;28;20084;-78
2022/08/06 10:12:18;;;;;;;2.75;1.98;;;;;;;21.53;47.58;102045.63;5048609;28;20053;-78
2022/08/06 10:14:44;;;;;;;1.80;1.55;;;;;;;21.53;47.98;102034.97;5038987;28;20121;-78
2022/08/06 10:17:12;;;;;;;5.30;1.60;;;;;;;20.97;48.70;102033.22;5046218;28;20129;-77
2022/08/06 10:19:41;;;;;;;4.55;2.08;;;;;;;20.98;49.03;102032.22;5045312;28;20053;-76
2022/08/06 10:22:10;;;;;;;2.05;1.83;;;;;;;20.85;49.42;102025.75;5037834;28;20045;-77
2022/08/06 10:24:40;;;;;;;3.70;2.22;;;;;;;21.28;48.81;102036.41;5049961;28;20107;-77
2022/08/06 10:27:08;;;;;;;2.25;1.73;;;;;;;21.95;48.31;102035.00;5052831;28;20053;-76
2022/08/06 10:29:40;;;;;;;2.67;1.63;;;;;;;22.11;47.55;102032.88;5051909;28;20488;-78
2022/08/06 10:32:10;;;;;;;3.35;1.83;;;;;;;21.65;47.89;102042.44;5049663;28;20060;-77
2022/08/06 10:34:37;;;;;;;9.32;2.30;;;;;;;21.28;48.13;102036.41;5044195;28;20259;-78
2022/08/06 10:37:07;;;;;;;8.18;1.98;;;;;;;21.08;49.10;102030.88;5060893;28;20065;-79
2022/08/06 10:39:38;;;;;;;1.80;1.67;;;;;;;21.02;49.01;102028.16;5054332;28;20049;-80
2022/08/06 10:42:06;;;;;;;2.55;2.13;;;;;;;21.31;48.31;102036.00;5062266;28;20106;-80
2022/08/06 10:44:35;;;;;;;3.72;1.80;;;;;;;21.92;47.32;102033.56;5045187;28;20081;-81
2022/08/06 10:47:05;;;;;;;4.50;1.73;;;;;;;22.23;45.92;102024.28;5060165;28;20041;-80
2022/08/06 10:49:34;;;;;;;2.15;1.33;;;;;;;22.26;44.64;102030.03;5052514;28;20049;-80
2022/08/06 10:52:17;;;;;;;1.95;1.27;;;;;;;21.81;46.67;102018.13;5055807;28;20049;-80
2022/08/06 10:58:37;;;;;;;3.13;2.15;;;;;;;20.77;46.70;102023.25;4995934;28;20065;-80
2022/08/06 11:04:35;;;;;;;1.70;1.27;;;;;;;21.49;45.68;102027.56;5056148;28;20083;-80
2022/08/06 11:11:21;;;;;;;2.90;1.42;;;;;;;20.56;46.04;101999.28;5016063;28;20763;-81
2022/08/06 11:14:10;;;;;;;2.72;1.73;;;;;;;20.99;44.94;102015.25;5023025;28;20056;-80
2022/08/06 11:20:07;;;;;;;3.67;1.85;;;;;;;21.56;44.47;102001.78;4989092;28;20054;-79
2022/08/06 11:22:55;;;;;;;1.45;1.30;;;;;;;21.99;44.96;101996.28;5058419;28;20506;-81
2022/08/06 11:25:59;;;;;;;2.83;1.63;;;;;;;22.34;43.25;102000.53;5058712;28;20121;-81
2022/08/06 11:29:01;;;;;;;3.10;1.63;;;;;;;22.15;44.36;102003.97;5045985;28;20582;-78
2022/08/06 11:31:36;;;;;;;1.95;1.75;;;;;;;22.28;43.51;101979.19;5051482;28;20053;-77
2022/08/06 11:34:05;;;;;;;3.58;1.67;;;;;;;22.53;43.63;101993.63;5046554;28;20103;-76
2022/08/06 11:36:51;;;;;;;1.48;1.38;;;;;;;22.37;43.51;102002.00;5045808;28;20051;-79
2022/08/06 11:39:20;;;;;;;3.33;1.50;;;;;;;21.53;44.70;101997.69;5040644;28;20107;-76
2022/08/06 11:41:59;;;;;;;2.05;0.98;;;;;;;21.15;46.32;101999.00;5043099;28;20083;-79
2022/08/06 11:44:30;;;;;;;3.10;1.85;;;;;;;20.97;46.75;101993.31;5039773;28;20161;-79
2022/08/06 11:47:16;;;;;;;2.78;1.80;;;;;;;21.35;46.32;101992.00;5039435;28;20103;-78
2022/08/06 11:49:47;;;;;;;2.03;1.30;;;;;;;22.17;44.58;101994.75;5039702;28;20123;-76
2022/08/06 11:52:40;;;;;;;2.15;1.63;;;;;;;22.17;43.30;101984.09;5040117;28;20084;-77
2022/08/06 11:55:08;;;;;;;1.80;1.20;;;;;;;22.05;44.07;101982.19;5040053;28;20065;-78
2022/08/06 11:57:35;;;;;;;1.65;1.48;;;;;;;21.62;43.71;101994.88;5045497;28;20049;-76
2022/08/06 12:00:14;;;;;;;3.60;1.48;;;;;;;21.59;43.55;101997.91;5038666;28;20107;-78